Time;durP1;ratioP1;P1;durP2;ratioP2;P2;SDS_P1;SDS_P2;PMS_P1;PMS_P2;Temp;Humidity;BMP_temperature;BMP_pressure;BME280_temperature;BME280_humidity;BME280_pressure;Samples;Min_cycle;Max_cycle;Signal;HPM_P1;HPM_P2
2021/12/13 00:01:01;;;;;;;45.67;26.60;;;;;;;17.97;51.55;102521.31;5005278;28;20079;-59
2021/12/13 00:03:46;;;;;;;48.35;28.33;;;;;;;17.97;51.58;102525.81;5003890;28;20128;-58
2021/12/13 00:06:17;;;;;;;48.05;27.42;;;;;;;17.97;51.49;102517.78;5011172;28;20057;-58
2021/12/13 00:08:52;;;;;;;45.38;26.27;;;;;;;17.96;51.44;102514.19;5009688;28;20058;-58
2021/12/13 00:11:22;;;;;;;43.92;26.40;;;;;;;17.95;51.47;102515.19;5001627;28;20136;-58
2021/12/13 00:13:54;;;;;;;44.40;25.90;;;;;;;17.96;51.59;102521.41;5006574;28;20046;-57
2021/12/13 00:16:31;;;;;;;43.67;26.38;;;;;;;17.96;51.80;102521.41;5006664;28;20056;-57
2021/12/13 00:19:01;;;;;;;45.67;25.83;;;;;;;17.93;51.60;102522.50;5002669;28;20141;-57
2021/12/13 00:21:37;;;;;;;41.10;24.65;;;;;;;17.94;51.53;102528.72;5009778;28;20060;-57
2021/12/13 00:24:12;;;;;;;45.15;25.83;;;;;;;17.93;51.50;102526.97;5008734;28;20137;-58
2021/12/13 00:26:42;;;;;;;44.63;25.60;;;;;;;17.92;51.45;102528.81;5006299;28;20052;-59
2021/12/13 00:29:16;;;;;;;45.00;26.10;;;;;;;17.92;51.32;102528.81;5006255;28;20050;-58
2021/12/13 00:31:59;;;;;;;41.85;25.45;;;;;;;17.92;51.19;102530.63;4995292;28;20429;-52
2021/12/13 00:34:38;;;;;;;43.63;24.55;;;;;;;17.92;51.49;102536.00;5010013;28;20137;-55
2021/12/13 00:37:17;;;;;;;42.85;24.45;;;;;;;17.91;51.50;102542.34;5007486;28;20062;-54
2021/12/13 00:39:59;;;;;;;40.97;23.45;;;;;;;17.91;51.57;102540.50;5005303;28;20125;-56
2021/12/13 00:42:35;;;;;;;42.67;24.80;;;;;;;17.90;51.76;102546.00;5012380;28;20053;-54
2021/12/13 00:45:10;;;;;;;42.45;24.70;;;;;;;17.89;51.59;102531.75;5009430;28;20365;-54
2021/12/13 00:47:38;;;;;;;41.38;24.45;;;;;;;17.88;51.53;102539.88;5014473;28;20132;-54
2021/12/13 00:50:11;;;;;;;42.47;22.75;;;;;;;17.88;51.66;102534.50;5009694;28;20311;-55
2021/12/13 00:52:41;;;;;;;38.70;22.77;;;;;;;17.87;52.00;102530.97;5010793;28;20073;-60
2021/12/13 00:55:14;;;;;;;39.28;23.45;;;;;;;17.86;51.75;102531.94;5011740;28;20046;-58
2021/12/13 00:57:47;;;;;;;39.33;22.75;;;;;;;17.86;51.58;102531.09;5013230;28;20073;-57
2021/12/13 01:00:30;;;;;;;35.55;21.27;;;;;;;17.85;51.51;102540.09;5011678;28;20054;-52
2021/12/13 01:03:17;;;;;;;40.70;22.92;;;;;;;17.84;51.71;102541.06;5009241;28;20041;-53
2021/12/13 01:06:19;;;;;;;33.08;19.83;;;;;;;17.82;52.03;102545.69;5012047;28;20433;-54
2021/12/13 01:09:23;;;;;;;38.38;22.00;;;;;;;17.82;51.98;102543.88;5012411;28;20428;-54
2021/12/13 01:11:55;;;;;;;33.65;19.85;;;;;;;17.84;51.84;102546.44;5005544;28;20060;-55
2021/12/13 01:14:28;;;;;;;32.75;19.52;;;;;;;17.81;51.95;102552.91;5009163;28;20064;-53
2021/12/13 01:17:09;;;;;;;34.38;19.80;;;;;;;17.80;51.68;102556.53;5009697;28;20060;-55
2021/12/13 01:19:50;;;;;;;34.75;18.85;;;;;;;17.80;52.22;102558.34;5009143;28;20049;-54
2021/12/13 01:25:40;;;;;;;32.17;18.73;;;;;;;17.79;51.81;102554.81;5009423;28;20607;-55
2021/12/13 01:28:26;;;;;;;31.55;18.00;;;;;;;17.78;52.21;102569.19;5007489;28;20124;-54
2021/12/13 01:31:01;;;;;;;38.03;19.95;;;;;;;17.78;52.06;102565.66;5009172;28;20128;-55
2021/12/13 01:33:30;;;;;;;29.83;17.42;;;;;;;17.78;52.44;102566.50;5006767;28;20050;-54
2021/12/13 01:36:02;;;;;;;31.38;18.00;;;;;;;17.78;52.19;102576.41;5008775;28;20512;-53
2021/12/13 01:38:52;;;;;;;31.48;17.95;;;;;;;17.75;52.08;102572.94;5010154;28;20140;-54
2021/12/13 01:41:23;;;;;;;31.75;17.60;;;;;;;17.75;52.43;102572.09;5007671;28;20177;-54
2021/12/13 01:43:56;;;;;;;28.92;16.90;;;;;;;17.75;52.33;102570.25;5012473;28;20053;-54
2021/12/13 01:46:24;;;;;;;28.67;16.63;;;;;;;17.75;52.39;102572.09;5007320;28;20056;-53
2021/12/13 01:48:52;;;;;;;30.17;17.35;;;;;;;17.74;52.19;102578.41;5005339;28;20092;-54
2021/12/13 01:51:26;;;;;;;29.38;16.63;;;;;;;17.74;52.30;102578.41;5009056;28;20057;-54
2021/12/13 01:54:03;;;;;;;29.95;17.48;;;;;;;17.73;52.13;102580.22;5006687;28;20999;-56
2021/12/13 01:56:43;;;;;;;26.63;15.43;;;;;;;17.73;52.32;102579.38;5010015;28;20049;-57
2021/12/13 02:02:12;;;;;;;26.63;14.48;;;;;;;17.72;52.12;102583.00;5007883;28;20434;-56
2021/12/13 02:04:40;;;;;;;26.88;15.70;;;;;;;17.72;52.41;102594.56;5013011;28;20045;-54
2021/12/13 02:07:08;;;;;;;24.60;14.65;;;;;;;17.73;51.77;102590.97;5008406;28;20077;-54
2021/12/13 02:09:42;;;;;;;24.85;14.98;;;;;;;17.70;52.39;102583.13;5009993;28;20049;-56
2021/12/13 02:12:14;;;;;;;24.95;14.98;;;;;;;17.70;52.20;102580.44;5009717;28;20432;-54
2021/12/13 02:16:56;;;;;;;25.77;14.35;;;;;;;17.68;52.63;102574.31;5006565;28;20064;-55
2021/12/13 02:17:42;;;;;;;27.45;15.68;;;;;;;17.69;52.17;102584.09;5010176;28;20141;-55
2021/12/13 02:20:17;;;;;;;23.83;13.15;;;;;;;17.68;52.63;102578.81;5003111;28;20049;-57
2021/12/13 02:22:51;;;;;;;26.55;14.35;;;;;;;17.68;52.09;102579.69;5007988;28;20053;-56
2021/12/13 02:25:46;;;;;;;24.13;13.13;;;;;;;17.67;52.44;102569.06;5007307;28;20052;-56
2021/12/13 02:28:18;;;;;;;22.73;13.50;;;;;;;17.68;52.79;102562.72;5006245;28;20050;-56
2021/12/13 02:31:07;;;;;;;22.95;13.30;;;;;;;17.67;52.53;102577.13;5009815;28;20052;-55
2021/12/13 02:34:00;;;;;;;21.95;12.18;;;;;;;17.67;51.91;102572.59;5006533;28;20124;-55
2021/12/13 02:36:34;;;;;;;21.02;13.00;;;;;;;17.67;52.45;102569.06;5010889;28;20052;-52
2021/12/13 02:39:06;;;;;;;21.63;13.07;;;;;;;17.66;52.05;102584.31;5008260;28;20129;-54
2021/12/13 02:41:37;;;;;;;22.00;13.05;;;;;;;17.67;52.20;102579.78;5005202;28;20046;-53
2021/12/13 02:44:13;;;;;;;19.08;11.50;;;;;;;17.66;52.36;102578.94;5013798;28;20064;-56
2021/12/13 02:46:39;;;;;;;19.05;11.48;;;;;;;17.66;52.30;102583.44;5008213;28;20050;-54
2021/12/13 02:49:10;;;;;;;21.23;12.18;;;;;;;17.64;51.98;102577.31;5005277;28;20452;-53
2021/12/13 02:51:42;;;;;;;22.42;11.63;;;;;;;17.64;52.68;102575.50;5010590;28;20064;-54
2021/12/13 02:54:16;;;;;;;21.35;11.52;;;;;;;17.64;52.53;102577.31;5004127;28;20742;-53
2021/12/13 02:57:11;;;;;;;18.50;10.77;;;;;;;17.62;52.23;102577.44;5009961;28;20585;-56
2021/12/13 02:59:43;;;;;;;21.27;11.65;;;;;;;17.63;52.39;102578.28;5008383;28;20053;-53
2021/12/13 03:02:24;;;;;;;20.50;10.95;;;;;;;17.62;52.10;102580.13;5005481;28;20050;-53
2021/12/13 03:04:56;;;;;;;19.85;11.90;;;;;;;17.62;52.46;102571.22;5009694;28;20464;-56
2021/12/13 03:07:32;;;;;;;20.13;11.18;;;;;;;17.62;52.35;102581.94;5007825;28;20080;-56
2021/12/13 03:10:00;;;;;;;18.65;10.38;;;;;;;17.61;52.56;102574.84;5013364;28;20044;-54
2021/12/13 03:12:28;;;;;;;16.85;9.80;;;;;;;17.62;52.29;102571.22;5008466;28;20125;-56
2021/12/13 03:15:03;;;;;;;17.10;9.52;;;;;;;17.60;52.44;102579.34;5002718;28;20136;-55
2021/12/13 03:17:37;;;;;;;14.85;9.60;;;;;;;17.59;52.49;102582.16;5007692;28;20086;-56
2021/12/13 03:20:06;;;;;;;16.73;9.55;;;;;;;17.60;52.44;102583.88;5004423;28;20129;-56
2021/12/13 03:23:03;;;;;;;15.25;9.25;;;;;;;17.58;52.26;102586.66;5008455;28;20045;-55
2021/12/13 03:25:52;;;;;;;14.68;9.00;;;;;;;17.59;52.48;102580.34;5009409;28;20080;-56
2021/12/13 03:28:43;;;;;;;17.63;9.57;;;;;;;17.59;52.10;102580.34;5006670;28;20050;-56
2021/12/13 03:31:23;;;;;;;17.58;9.77;;;;;;;17.58;52.69;102583.13;5009258;28;20069;-55
2021/12/13 03:33:58;;;;;;;15.63;10.00;;;;;;;17.57;52.69;102576.03;5008031;28;20042;-56
2021/12/13 03:36:53;;;;;;;14.35;8.52;;;;;;;17.56;52.89;102577.84;5006590;28;20105;-57
2021/12/13 03:39:39;;;;;;;14.38;8.45;;;;;;;17.58;51.99;102573.25;5011623;28;20438;-55
2021/12/13 03:42:11;;;;;;;15.93;9.65;;;;;;;17.56;52.23;102577.84;5001958;28;20501;-56
2021/12/13 03:44:46;;;;;;;13.63;8.75;;;;;;;17.55;52.47;102575.31;5010514;28;20055;-57
2021/12/13 03:47:39;;;;;;;17.40;9.68;;;;;;;17.55;52.42;102581.53;5005047;28;20061;-55
2021/12/13 03:50:12;;;;;;;13.95;8.73;;;;;;;17.54;52.30;102577.13;5002867;28;20137;-56
2021/12/13 03:52:43;;;;;;;18.75;9.43;;;;;;;17.55;52.48;102584.19;5010856;28;20056;-56
2021/12/13 03:55:15;;;;;;;14.20;8.75;;;;;;;17.54;52.84;102573.59;5011449;28;20145;-56
2021/12/13 03:57:47;;;;;;;13.95;8.15;;;;;;;17.55;52.72;102586.03;5004036;28;20591;-56
2021/12/13 04:00:17;;;;;;;13.68;7.97;;;;;;;17.54;52.67;102581.63;5008449;28;20318;-56
2021/12/13 04:02:44;;;;;;;15.15;9.15;;;;;;;17.52;52.55;102579.03;5006369;28;20051;-56
2021/12/13 04:05:17;;;;;;;13.30;8.43;;;;;;;17.52;52.18;102577.22;5009676;28;20598;-57
2021/12/13 04:07:48;;;;;;;13.87;8.20;;;;;;;17.52;52.55;102574.53;5007242;28;20046;-56
2021/12/13 04:10:22;;;;;;;13.18;7.82;;;;;;;17.52;52.65;102571.00;5012245;28;20049;-55
2021/12/13 04:12:54;;;;;;;16.20;8.85;;;;;;;17.51;52.60;102569.28;5005183;28;20141;-56
2021/12/13 04:15:55;;;;;;;12.13;7.50;;;;;;;17.51;52.57;102570.16;5003714;28;20049;-57
2021/12/13 04:21:24;;;;;;;11.63;7.47;;;;;;;17.51;52.69;102558.56;5008799;28;20654;-56
2021/12/13 04:24:00;;;;;;;12.07;7.95;;;;;;;17.50;52.62;102556.88;5013375;28;20132;-57
2021/12/13 04:26:28;;;;;;;12.98;7.45;;;;;;;17.49;52.56;102561.38;5013253;28;20375;-56
2021/12/13 04:28:59;;;;;;;13.07;7.55;;;;;;;17.50;52.18;102554.19;5008179;28;20046;-56
2021/12/13 04:31:32;;;;;;;13.65;7.55;;;;;;;17.48;52.90;102559.63;5013657;28;20357;-55
2021/12/13 04:34:02;;;;;;;13.38;7.57;;;;;;;17.48;52.91;102575.72;5012239;28;20079;-55
2021/12/13 04:36:34;;;;;;;9.70;6.50;;;;;;;17.48;52.57;102580.22;5013895;28;20053;-54
2021/12/13 04:39:27;;;;;;;10.90;6.55;;;;;;;17.46;52.58;102569.63;5010368;28;20156;-55
2021/12/13 04:42:21;;;;;;;11.35;6.88;;;;;;;17.48;52.44;102569.50;5013052;28;20046;-57
2021/12/13 04:44:50;;;;;;;11.88;7.15;;;;;;;17.47;52.65;102567.78;5010172;28;20052;-57
2021/12/13 04:47:43;;;;;;;11.25;6.95;;;;;;;17.45;52.75;102570.59;5008121;28;20049;-57
2021/12/13 04:50:17;;;;;;;8.85;6.10;;;;;;;17.46;52.91;102572.31;5004083;28;20041;-57
2021/12/13 04:52:45;;;;;;;11.20;6.75;;;;;;;17.46;52.81;102571.44;5014575;28;20054;-56
2021/12/13 04:55:23;;;;;;;9.70;6.20;;;;;;;17.46;52.83;102572.31;5009739;28;20132;-55
2021/12/13 04:57:55;;;;;;;13.02;6.70;;;;;;;17.45;52.75;102569.75;5006421;28;20136;-56
2021/12/13 05:00:25;;;;;;;11.70;6.68;;;;;;;17.45;52.78;102569.75;5009113;28;20064;-57
2021/12/13 05:02:58;;;;;;;11.00;7.00;;;;;;;17.44;52.67;102573.38;5007510;28;20045;-57
2021/12/13 05:05:26;;;;;;;12.43;6.80;;;;;;;17.44;53.12;102573.38;5012161;28;20050;-56
2021/12/13 05:07:53;;;;;;;11.70;6.97;;;;;;;17.43;53.12;102571.66;5009219;28;20057;-57
2021/12/13 05:10:24;;;;;;;10.45;6.75;;;;;;;17.43;52.79;102579.69;5007979;28;20096;-56
2021/12/13 05:13:25;;;;;;;13.43;6.45;;;;;;;17.43;53.32;102579.69;5006164;28;20061;-58
2021/12/13 05:16:01;;;;;;;11.80;6.88;;;;;;;17.43;52.82;102577.03;5004574;28;20049;-55
2021/12/13 05:18:32;;;;;;;11.30;7.05;;;;;;;17.42;52.81;102578.84;5013352;28;20049;-57
2021/12/13 05:21:09;;;;;;;11.25;6.72;;;;;;;17.41;52.76;102573.59;5009082;28;20501;-55
2021/12/13 05:23:47;;;;;;;12.55;7.60;;;;;;;17.40;52.74;102574.53;5010549;28;20054;-56
2021/12/13 05:26:36;;;;;;;19.65;9.38;;;;;;;17.39;52.64;102581.72;5010214;28;20151;-56
2021/12/13 05:29:19;;;;;;;17.90;9.55;;;;;;;17.40;52.61;102577.22;5010718;28;20433;-57
2021/12/13 05:31:54;;;;;;;16.27;9.55;;;;;;;17.40;53.25;102583.44;5014630;28;20052;-56
2021/12/13 05:34:28;;;;;;;17.58;10.02;;;;;;;17.40;52.88;102577.22;5005950;28;20060;-57
2021/12/13 05:36:57;;;;;;;16.55;9.55;;;;;;;17.38;52.78;102582.72;5008550;28;20326;-56
2021/12/13 05:39:26;;;;;;;18.58;9.43;;;;;;;17.37;52.73;102588.19;5008118;28;20111;-55
2021/12/13 05:42:09;;;;;;;17.60;9.52;;;;;;;17.37;52.26;102586.34;5008009;28;20124;-55
2021/12/13 05:44:43;;;;;;;20.10;10.10;;;;;;;17.38;52.82;102587.22;5004891;28;20051;-54
2021/12/13 05:47:23;;;;;;;19.48;10.10;;;;;;;17.37;52.91;102588.19;5006888;28;20327;-56
2021/12/13 05:49:50;;;;;;;17.05;10.30;;;;;;;17.36;52.32;102581.94;5009094;28;20339;-56
2021/12/13 05:52:31;;;;;;;16.98;10.68;;;;;;;17.35;53.04;102593.63;5008420;28;20160;-56
2021/12/13 05:55:02;;;;;;;17.75;9.60;;;;;;;17.35;52.95;102584.75;5005169;28;20054;-55
2021/12/13 05:57:41;;;;;;;20.05;11.15;;;;;;;17.35;52.32;102590.09;5007764;28;20046;-56
2021/12/13 06:00:11;;;;;;;20.60;10.75;;;;;;;17.33;52.50;102582.19;5007826;28;20404;-56
2021/12/13 06:03:02;;;;;;;17.50;9.85;;;;;;;17.32;52.74;102587.63;5010633;28;20121;-56
2021/12/13 06:05:36;;;;;;;18.00;9.38;;;;;;;17.33;52.28;102589.38;5009693;28;20054;-55
2021/12/13 06:08:15;;;;;;;20.17;9.88;;;;;;;17.32;52.70;102591.16;5004670;28;20503;-55
2021/12/13 06:10:57;;;;;;;18.58;10.57;;;;;;;17.32;52.64;102590.31;5008441;28;20312;-56
2021/12/13 06:13:44;;;;;;;17.67;9.55;;;;;;;17.30;52.73;102595.78;5007909;28;20137;-56
2021/12/13 06:16:17;;;;;;;17.40;9.18;;;;;;;17.32;52.60;102598.34;5001325;28;20054;-56
2021/12/13 06:18:59;;;;;;;16.85;9.23;;;;;;;17.29;52.94;102599.44;5009274;28;20129;-56
2021/12/13 06:21:49;;;;;;;16.98;10.02;;;;;;;17.29;52.28;102602.13;5008462;28;20050;-57
2021/12/13 06:24:25;;;;;;;15.55;9.30;;;;;;;17.29;52.33;102596.75;5002102;28;20141;-56
2021/12/13 06:27:01;;;;;;;15.10;9.77;;;;;;;17.28;52.67;102598.53;5009957;28;20056;-55
2021/12/13 06:30:02;;;;;;;18.95;9.95;;;;;;;17.28;52.15;102603.91;5005311;28;20068;-56
2021/12/13 06:32:48;;;;;;;15.98;9.23;;;;;;;17.28;52.95;102595.88;5008372;28;20049;-56
2021/12/13 06:35:36;;;;;;;15.68;9.15;;;;;;;17.26;52.33;102608.53;5007201;28;20050;-55
2021/12/13 06:38:20;;;;;;;15.35;8.93;;;;;;;17.27;52.54;102602.19;5008027;28;20057;-56
2021/12/13 06:41:10;;;;;;;14.07;8.65;;;;;;;17.27;52.03;102604.03;5001292;28;20483;-56
2021/12/13 06:43:47;;;;;;;16.55;8.80;;;;;;;17.27;52.32;102596.84;5009748;28;20133;-56
2021/12/13 06:46:23;;;;;;;16.35;9.00;;;;;;;17.27;52.35;102612.06;5003982;28;20054;-55
2021/12/13 06:48:58;;;;;;;14.43;8.80;;;;;;;17.26;52.21;102608.53;5004264;28;20055;-56
2021/12/13 06:51:52;;;;;;;16.52;9.73;;;;;;;17.26;52.52;102615.72;5002481;28;20046;-54
2021/12/13 06:54:25;;;;;;;20.17;9.45;;;;;;;17.25;51.96;102608.66;5006570;28;20177;-57
2021/12/13 06:56:56;;;;;;;15.80;9.18;;;;;;;17.26;52.50;102621.06;5005751;28;20042;-56
2021/12/13 06:59:24;;;;;;;15.07;8.93;;;;;;;17.27;52.88;102617.44;5006395;28;20058;-57
2021/12/13 07:02:19;;;;;;;15.00;8.57;;;;;;;17.24;52.31;102614.94;5004752;28;20049;-57
2021/12/13 07:04:53;;;;;;;13.48;8.65;;;;;;;17.25;52.24;102617.53;5006048;28;20068;-56
2021/12/13 07:07:24;;;;;;;13.85;8.48;;;;;;;17.25;52.42;102614.88;5000885;28;20054;-56
2021/12/13 07:09:57;;;;;;;15.23;8.15;;;;;;;17.24;51.86;102620.31;5007463;28;20128;-57
2021/12/13 07:12:27;;;;;;;15.57;8.75;;;;;;;17.23;52.23;102616.78;5006328;28;20056;-58
2021/12/13 07:14:54;;;;;;;15.43;9.18;;;;;;;17.23;52.72;102619.44;5005952;28;20577;-57
2021/12/13 07:17:34;;;;;;;15.00;9.35;;;;;;;17.23;52.07;102630.16;5004920;28;20050;-56
2021/12/13 07:20:15;;;;;;;14.20;8.70;;;;;;;17.22;52.05;102631.13;5004572;28;20053;-55
2021/12/13 07:22:43;;;;;;;12.77;7.88;;;;;;;17.23;52.59;102627.50;5005767;28;20054;-57
2021/12/13 07:25:14;;;;;;;16.75;9.23;;;;;;;17.23;52.64;102634.69;5002241;28;20429;-55
2021/12/13 07:27:50;;;;;;;14.38;8.73;;;;;;;17.21;52.15;102634.78;5007105;28;20064;-56
2021/12/13 07:30:27;;;;;;;15.25;8.20;;;;;;;17.21;52.32;102642.84;5005265;28;20132;-57
2021/12/13 07:32:59;;;;;;;;;;;;;;;17.22;51.84;102641.00;5002093;28;20136;-55
2021/12/13 07:35:28;;;;;;;15.48;8.68;;;;;;;17.23;52.51;102642.72;5004029;28;19921;-56
2021/12/13 07:38:03;;;;;;;13.35;8.82;;;;;;;17.21;52.14;102648.19;5003841;28;20133;-57
2021/12/13 07:40:48;;;;;;;15.02;9.32;;;;;;;17.21;52.52;102652.69;5006572;28;20353;-57
2021/12/13 07:43:26;;;;;;;14.73;8.75;;;;;;;17.20;51.91;102649.13;5002967;28;20140;-56
2021/12/13 07:46:17;;;;;;;14.02;9.13;;;;;;;17.19;52.40;102644.75;5007755;28;20050;-57
2021/12/13 07:48:44;;;;;;;16.08;8.98;;;;;;;17.21;52.52;102644.66;5004269;28;20830;-57
2021/12/13 07:51:18;;;;;;;14.75;9.23;;;;;;;17.19;52.26;102650.09;4999045;28;20070;-57
2021/12/13 07:53:57;;;;;;;13.48;9.05;;;;;;;17.19;52.27;102658.13;5003522;28;20123;-56
2021/12/13 07:56:29;;;;;;;14.85;8.73;;;;;;;17.19;52.63;102658.13;5002474;28;20140;-55
2021/12/13 07:59:17;;;;;;;14.50;8.93;;;;;;;17.16;52.20;102655.66;5008674;28;20082;-56
2021/12/13 08:01:49;;;;;;;15.05;8.90;;;;;;;17.18;52.07;102661.78;5005820;28;20069;-58
2021/12/13 08:04:27;;;;;;;13.83;8.83;;;;;;;17.18;52.54;102667.16;5001084;28;20058;-57
2021/12/13 08:07:08;;;;;;;14.57;9.07;;;;;;;17.17;52.32;102668.13;5005870;28;20444;-57
2021/12/13 08:10:00;;;;;;;16.52;9.10;;;;;;;17.18;52.59;102660.94;5008995;28;20041;-56
2021/12/13 08:12:28;;;;;;;15.95;9.88;;;;;;;17.19;52.58;102665.31;5007275;28;20052;-56
2021/12/13 08:15:15;;;;;;;15.45;9.35;;;;;;;17.19;52.19;102654.59;5008413;28;20046;-57
2021/12/13 08:17:51;;;;;;;15.23;9.65;;;;;;;17.18;51.88;102659.09;5002861;28;20060;-56
2021/12/13 08:20:25;;;;;;;17.13;9.57;;;;;;;17.18;51.62;102661.78;5003862;28;20052;-57
2021/12/13 08:22:54;;;;;;;15.82;9.80;;;;;;;17.17;52.00;102665.44;5005810;28;20349;-56
2021/12/13 08:25:26;;;;;;;18.33;10.15;;;;;;;17.18;52.36;102659.09;5004900;28;20046;-57
2021/12/13 08:27:57;;;;;;;16.30;10.02;;;;;;;17.19;52.36;102657.28;5008577;28;20050;-58
2021/12/13 08:31:02;;;;;;;17.83;10.85;;;;;;;17.18;52.34;102663.63;5004647;28;20052;-56
2021/12/13 08:33:37;;;;;;;17.33;10.20;;;;;;;17.17;52.36;102662.75;5018386;28;20042;-55
2021/12/13 08:36:09;;;;;;;18.92;11.45;;;;;;;17.17;51.91;102660.09;5008851;28;20136;-57
2021/12/13 08:38:47;;;;;;;21.52;11.32;;;;;;;17.16;52.05;102652.13;5006876;28;20054;-57
2021/12/13 08:41:15;;;;;;;19.17;11.82;;;;;;;17.16;52.19;102663.69;5005082;28;20583;-57
2021/12/13 08:43:48;;;;;;;21.30;12.15;;;;;;;17.16;52.13;102671.75;5004535;28;20390;-56
2021/12/13 08:46:29;;;;;;;21.27;11.30;;;;;;;17.16;52.25;102669.06;4998515;28;20064;-55
2021/12/13 08:48:56;;;;;;;21.40;11.90;;;;;;;17.17;52.32;102677.97;5005480;28;20133;-57
2021/12/13 08:51:27;;;;;;;19.70;10.65;;;;;;;17.17;52.21;102680.66;5005111;28;20058;-56
2021/12/13 08:54:06;;;;;;;20.58;12.02;;;;;;;17.15;52.45;102670.03;5003888;28;20050;-56
2021/12/13 08:56:44;;;;;;;20.80;12.30;;;;;;;17.15;51.93;102683.44;5002302;28;20056;-56
2021/12/13 08:59:24;;;;;;;19.20;11.90;;;;;;;17.15;51.69;102691.47;5000587;28;20050;-57
2021/12/13 09:01:59;;;;;;;21.25;12.25;;;;;;;17.14;52.36;102689.75;5002120;28;20042;-58
2021/12/13 09:04:29;;;;;;;21.35;12.10;;;;;;;17.16;51.70;102689.63;5007919;28;20049;-56
2021/12/13 09:07:01;;;;;;;20.23;11.35;;;;;;;17.15;52.54;102695.97;5005806;28;20125;-56
2021/12/13 09:09:29;;;;;;;20.83;12.68;;;;;;;17.15;51.82;102698.66;5016168;28;20144;-57
2021/12/13 09:11:59;;;;;;;19.92;11.88;;;;;;;17.15;52.03;102699.50;5009388;28;20400;-56
2021/12/13 09:14:35;;;;;;;19.58;11.45;;;;;;;17.14;52.13;102697.78;5005446;28;20400;-57
2021/12/13 09:17:10;;;;;;;20.17;12.25;;;;;;;17.14;52.25;102705.81;5008476;28;20136;-55
2021/12/13 09:19:57;;;;;;;21.98;12.43;;;;;;;17.14;52.48;102699.63;5003331;28;20489;-57
2021/12/13 09:22:35;;;;;;;27.15;13.15;;;;;;;17.15;51.93;102709.38;5013153;28;20620;-57
2021/12/13 09:25:05;;;;;;;18.83;12.27;;;;;;;17.15;52.46;102718.25;5009898;28;20069;-55
2021/12/13 09:27:55;;;;;;;19.50;11.48;;;;;;;17.15;52.29;102725.44;5004303;28;20514;-55
2021/12/13 09:30:45;;;;;;;22.25;11.35;;;;;;;17.13;51.91;102730.91;5008006;28;20096;-54
2021/12/13 09:33:29;;;;;;;20.48;11.93;;;;;;;17.13;52.23;102738.94;5005858;28;20041;-54
2021/12/13 09:36:06;;;;;;;19.77;12.07;;;;;;;17.13;52.13;102730.91;5004491;28;20129;-55
2021/12/13 09:38:54;;;;;;;17.85;11.85;;;;;;;17.14;52.19;102731.78;5004992;28;20146;-56
2021/12/13 09:41:30;;;;;;;21.77;12.10;;;;;;;17.13;51.68;102736.28;5008813;28;20050;-55
2021/12/13 09:44:18;;;;;;;21.95;12.25;;;;;;;17.13;51.97;102744.31;5005242;28;20068;-55
2021/12/13 09:46:56;;;;;;;23.77;12.68;;;;;;;17.14;52.35;102740.66;5003181;28;20045;-55
2021/12/13 09:49:29;;;;;;;21.83;12.45;;;;;;;17.13;52.17;102741.63;5008101;28;20323;-55
2021/12/13 09:52:05;;;;;;;21.25;12.27;;;;;;;17.14;51.73;102742.47;5007656;28;20053;-56
2021/12/13 09:54:39;;;;;;;20.83;12.48;;;;;;;17.14;51.99;102750.53;5007726;28;20449;-56
2021/12/13 09:57:08;;;;;;;;;;;;;;;17.14;51.61;102755.88;5003786;28;20050;-51
2021/12/13 09:59:55;;;;;;;22.00;12.45;;;;;;;17.17;52.23;102771.75;5009463;28;20221;-55
2021/12/13 10:02:31;;;;;;;20.45;11.45;;;;;;;17.16;51.84;102783.41;5006339;28;20088;-57
2021/12/13 10:04:59;;;;;;;20.95;11.43;;;;;;;17.16;51.44;102778.06;5005542;28;20050;-55
2021/12/13 10:07:30;;;;;;;19.08;11.32;;;;;;;17.17;52.32;102774.44;5007689;28;20046;-57
2021/12/13 10:10:21;;;;;;;21.98;12.63;;;;;;;17.15;51.92;102771.84;5009352;28;20137;-56
2021/12/13 10:13:04;;;;;;;27.40;12.48;;;;;;;17.16;51.91;102762.84;5004149;28;20121;-57
2021/12/13 10:15:47;;;;;;;18.30;11.38;;;;;;;17.16;51.52;102756.63;5003792;28;20137;-57
2021/12/13 10:18:19;;;;;;;18.75;11.85;;;;;;;17.17;51.88;102751.19;5005290;28;20054;-56
2021/12/13 10:20:52;;;;;;;20.10;12.88;;;;;;;17.17;51.62;102753.88;5012067;28;20128;-55
2021/12/13 10:23:24;;;;;;;16.55;10.88;;;;;;;17.16;51.97;102751.25;5008683;28;20042;-57
2021/12/13 10:25:54;;;;;;;19.75;11.35;;;;;;;17.16;52.22;102753.94;5002642;28;20124;-56
2021/12/13 10:28:25;;;;;;;19.90;11.05;;;;;;;17.16;51.46;102748.59;5010232;28;20050;-56
2021/12/13 10:30:57;;;;;;;20.10;12.05;;;;;;;17.16;52.31;102744.09;5008489;28;20081;-56
2021/12/13 10:33:26;;;;;;;19.23;11.18;;;;;;;17.16;51.49;102752.13;5005141;28;20450;-55
2021/12/13 10:35:55;;;;;;;19.52;11.30;;;;;;;17.16;51.79;102752.13;5008483;28;20134;-55
2021/12/13 10:38:29;;;;;;;18.75;11.13;;;;;;;17.16;51.60;102754.81;5004426;28;20085;-56
2021/12/13 10:41:10;;;;;;;18.00;9.77;;;;;;;17.15;52.14;102750.41;5006915;28;20056;-55
2021/12/13 10:43:44;;;;;;;21.42;11.32;;;;;;;17.15;52.24;102745.06;5008895;28;20050;-56
2021/12/13 10:46:15;;;;;;;20.30;11.18;;;;;;;17.15;51.39;102742.38;5003720;28;20472;-55
2021/12/13 10:48:47;;;;;;;15.88;9.95;;;;;;;17.15;51.86;102745.06;5005777;28;20057;-54
2021/12/13 10:51:27;;;;;;;18.25;10.52;;;;;;;17.14;52.13;102754.06;5004923;28;20342;-55
2021/12/13 10:53:58;;;;;;;16.02;10.00;;;;;;;17.15;51.31;102758.44;5005622;28;20389;-54
2021/12/13 10:56:31;;;;;;;17.15;9.85;;;;;;;17.15;52.00;102758.44;5002232;28;20125;-53
2021/12/13 10:59:00;;;;;;;16.70;10.10;;;;;;;17.13;51.37;102757.72;5005899;28;20488;-55
2021/12/13 11:01:35;;;;;;;17.73;10.18;;;;;;;17.14;51.80;102753.19;5004771;28;20132;-52
2021/12/13 11:04:06;;;;;;;15.75;9.05;;;;;;;17.14;51.30;102745.16;5007699;28;20049;-54
2021/12/13 11:06:35;;;;;;;15.23;9.15;;;;;;;17.14;51.73;102742.47;5004065;28;20064;-54
2021/12/13 11:09:05;;;;;;;16.13;9.35;;;;;;;17.14;51.81;102745.16;5004979;28;20141;-55
2021/12/13 11:11:38;;;;;;;16.45;8.40;;;;;;;17.14;52.17;102742.47;5001845;28;20070;-53
2021/12/13 11:14:07;;;;;;;15.52;9.30;;;;;;;17.13;51.49;102744.31;5005319;28;20053;-54
2021/12/13 11:16:44;;;;;;;15.05;9.00;;;;;;;17.13;51.43;102746.13;5001019;28;20058;-54
2021/12/13 11:19:15;;;;;;;13.63;8.93;;;;;;;17.13;51.78;102754.16;5007929;28;20137;-56
2021/12/13 11:21:45;;;;;;;14.35;8.20;;;;;;;17.13;51.46;102747.00;5001684;28;20165;-56
2021/12/13 11:24:19;;;;;;;16.00;9.30;;;;;;;17.12;51.59;102747.94;5004297;28;20448;-55
2021/12/13 11:26:47;;;;;;;;;;;;;;;17.13;51.48;102743.44;5005636;28;20458;-53
2021/12/13 11:29:15;;;;;;;15.90;7.95;;;;;;;17.15;51.16;102745.06;5004537;28;19949;-54
2021/12/13 11:31:47;;;;;;;15.25;8.75;;;;;;;17.13;51.45;102741.63;5004032;28;20068;-54
2021/12/13 11:34:51;;;;;;;14.95;8.35;;;;;;;17.12;51.64;102742.56;5005538;28;20049;-56
2021/12/13 11:37:53;;;;;;;14.35;8.52;;;;;;;17.12;52.29;102741.72;5005489;28;20045;-53
2021/12/13 11:40:20;;;;;;;16.90;8.98;;;;;;;17.13;52.26;102738.09;5003379;28;20728;-55
2021/12/13 11:43:19;;;;;;;20.73;9.77;;;;;;;17.12;52.11;102734.53;5008446;28;20521;-55
2021/12/13 11:46:17;;;;;;;18.10;9.77;;;;;;;17.12;52.27;102731.84;5000182;28;20141;-54
2021/12/13 11:49:03;;;;;;;17.42;9.60;;;;;;;17.12;51.94;102741.72;5006659;28;20045;-54
2021/12/13 11:51:58;;;;;;;27.85;10.13;;;;;;;17.12;51.70;102733.66;5005819;28;20053;-56
2021/12/13 11:54:54;;;;;;;17.63;8.95;;;;;;;17.12;51.91;102736.34;5005333;28;20169;-57
2021/12/13 11:58:00;;;;;;;24.73;11.25;;;;;;;17.11;52.21;102738.19;5006371;28;20084;-57
2021/12/13 12:00:42;;;;;;;25.75;13.35;;;;;;;17.12;51.70;102733.66;5008733;28;20341;-55
2021/12/13 12:03:41;;;;;;;32.55;15.27;;;;;;;17.12;52.28;102745.25;5004595;28;20082;-55
2021/12/13 12:06:41;;;;;;;30.90;15.20;;;;;;;17.10;51.91;102741.81;5008870;28;20091;-54
2021/12/13 12:09:29;;;;;;;23.20;13.05;;;;;;;17.12;52.04;102744.41;5005222;28;20064;-56